createdAt,value
2018-12-03T00:01:29.877Z,14.17
2018-12-03T00:04:01.793Z,14.50
2018-12-03T00:06:30.332Z,16.17
2018-12-03T00:08:58.962Z,14.27
2018-12-03T00:11:27.491Z,12.80
2018-12-03T00:13:56.089Z,12.80
2018-12-03T00:16:24.741Z,14.97
2018-12-03T00:18:53.257Z,13.33
2018-12-03T00:21:21.803Z,20.40
2018-12-03T00:23:50.340Z,15.70
2018-12-03T00:26:18.903Z,15.07
2018-12-03T00:28:47.460Z,15.60
2018-12-03T00:31:15.974Z,16.10
2018-12-03T00:33:44.508Z,19.37
2018-12-03T00:36:13.128Z,14.67
2018-12-03T00:38:41.675Z,14.20
2018-12-03T00:41:10.231Z,17.03
2018-12-03T00:43:38.785Z,15.90
2018-12-03T00:46:07.338Z,12.97
2018-12-03T00:48:35.856Z,15.53
2018-12-03T00:51:04.435Z,15.73
2018-12-03T00:53:32.938Z,14.53
2018-12-03T00:56:01.510Z,18.70
2018-12-03T00:58:30.041Z,24.63
2018-12-03T01:00:58.684Z,25.80
2018-12-03T01:03:27.215Z,30.37
2018-12-03T01:05:55.752Z,19.07
2018-12-03T01:08:24.291Z,24.13
2018-12-03T01:10:52.870Z,24.30
2018-12-03T01:13:21.416Z,19.07
2018-12-03T01:15:49.952Z,17.93
2018-12-03T01:18:18.493Z,18.23
2018-12-03T01:20:47.038Z,22.13
2018-12-03T01:23:15.619Z,17.27
2018-12-03T01:25:44.141Z,19.03
2018-12-03T01:28:12.689Z,20.57
2018-12-03T01:30:41.244Z,21.87
2018-12-03T01:33:09.799Z,19.57
2018-12-03T01:35:38.362Z,16.63
2018-12-03T01:38:06.915Z,15.23
2018-12-03T01:40:35.508Z,19.77
2018-12-03T01:43:04.112Z,17.93
2018-12-03T01:45:32.683Z,17.37
2018-12-03T01:48:01.227Z,20.23
2018-12-03T01:50:29.756Z,19.37
2018-12-03T01:52:58.288Z,19.83
2018-12-03T01:55:26.819Z,18.50
2018-12-03T01:57:55.339Z,18.53
2018-12-03T02:00:23.893Z,17.10
2018-12-03T02:02:52.402Z,16.90
2018-12-03T02:05:20.983Z,20.53
2018-12-03T02:07:49.504Z,22.93
2018-12-03T02:10:18.042Z,22.30
2018-12-03T02:12:46.616Z,22.97
2018-12-03T02:15:16.243Z,18.07
2018-12-03T02:17:45.051Z,18.30
2018-12-03T02:20:15.598Z,18.37
2018-12-03T02:22:44.147Z,17.40
2018-12-03T02:25:12.940Z,14.93
2018-12-03T02:27:41.486Z,17.27
2018-12-03T02:30:17.072Z,18.17
2018-12-03T02:32:45.654Z,15.63
2018-12-03T02:35:14.809Z,17.87
2018-12-03T02:37:43.429Z,17.17
2018-12-03T02:40:16.589Z,17.87
2018-12-03T02:42:45.256Z,19.87
2018-12-03T02:45:14.443Z,19.03
2018-12-03T02:47:43.027Z,18.27
2018-12-03T02:50:13.523Z,14.10
2018-12-03T02:52:42.076Z,13.90
2018-12-03T02:55:11.690Z,15.37
2018-12-03T02:57:40.226Z,18.67
2018-12-03T03:00:13.378Z,15.17
2018-12-03T03:02:42.478Z,16.80
2018-12-03T03:05:12.114Z,27.50
2018-12-03T03:07:40.659Z,27.70
2018-12-03T03:10:12.275Z,28.13
2018-12-03T03:12:40.853Z,27.70
2018-12-03T03:15:10.643Z,16.83
2018-12-03T03:17:39.311Z,16.33
2018-12-03T03:20:12.619Z,16.80
2018-12-03T03:22:41.219Z,13.53
2018-12-03T03:25:10.499Z,14.13
2018-12-03T03:27:39.113Z,16.40
2018-12-03T03:30:10.698Z,15.57
2018-12-03T03:32:39.313Z,13.93
2018-12-03T03:35:08.914Z,14.53
2018-12-03T03:37:37.573Z,14.57
2018-12-03T03:40:09.580Z,18.00
2018-12-03T03:42:38.135Z,17.83
2018-12-03T03:45:11.898Z,15.13
2018-12-03T03:47:40.443Z,16.13
2018-12-03T03:50:09.296Z,15.17
2018-12-03T03:52:37.975Z,21.20
2018-12-03T03:55:07.211Z,14.03
2018-12-03T03:57:35.744Z,13.83
2018-12-03T04:00:05.290Z,15.20
2018-12-03T04:02:33.876Z,13.23
2018-12-03T04:05:02.446Z,16.60
2018-12-03T04:07:31.010Z,15.63
2018-12-03T04:09:59.519Z,14.30
2018-12-03T04:12:28.019Z,13.40
2018-12-03T04:14:56.543Z,16.63
2018-12-03T04:17:25.074Z,15.73
2018-12-03T04:19:53.619Z,13.77
2018-12-03T04:22:22.143Z,14.07
2018-12-03T04:24:50.679Z,15.17
2018-12-03T04:27:19.207Z,12.73
2018-12-03T04:29:47.751Z,11.57
2018-12-03T04:32:16.242Z,14.70
2018-12-03T04:34:44.760Z,13.23
2018-12-03T04:37:13.290Z,14.40
2018-12-03T04:39:41.829Z,14.80
2018-12-03T04:42:10.351Z,15.07
2018-12-03T04:44:38.898Z,14.70
2018-12-03T04:47:07.431Z,15.83
2018-12-03T04:49:35.933Z,14.40
2018-12-03T04:52:04.497Z,15.63
2018-12-03T04:54:33.023Z,15.67
2018-12-03T04:57:01.551Z,17.90
2018-12-03T04:59:30.064Z,18.43
2018-12-03T05:01:58.621Z,17.57
2018-12-03T05:04:27.159Z,18.93
2018-12-03T05:06:55.701Z,15.87
2018-12-03T05:09:24.255Z,16.30
2018-12-03T05:11:52.762Z,16.23
2018-12-03T05:14:21.283Z,16.07
2018-12-03T05:16:49.802Z,19.70
2018-12-03T05:19:18.358Z,15.47
2018-12-03T05:21:46.887Z,16.37
2018-12-03T05:24:15.426Z,14.33
2018-12-03T05:26:43.960Z,18.70
2018-12-03T05:29:12.471Z,14.77
2018-12-03T05:31:40.958Z,17.27
2018-12-03T05:34:09.445Z,15.20
2018-12-03T05:36:37.942Z,13.47
2018-12-03T05:39:08.703Z,15.00
2018-12-03T05:41:37.202Z,15.10
2018-12-03T05:44:05.744Z,16.80
2018-12-03T05:46:34.880Z,17.97
2018-12-03T05:49:02.807Z,16.03
2018-12-03T05:51:31.289Z,17.23
2018-12-03T05:53:59.787Z,19.00
2018-12-03T05:56:28.271Z,16.80
2018-12-03T05:58:56.778Z,19.67
2018-12-03T06:01:25.293Z,16.43
2018-12-03T06:03:53.819Z,20.23
2018-12-03T06:06:22.305Z,20.60
2018-12-03T06:08:50.795Z,16.73
2018-12-03T06:11:19.283Z,15.93
2018-12-03T06:13:47.775Z,16.53
2018-12-03T06:16:16.637Z,13.93
2018-12-03T06:18:45.151Z,17.23
2018-12-03T06:21:13.674Z,23.73
2018-12-03T06:23:42.151Z,14.53
2018-12-03T06:26:10.634Z,12.77
2018-12-03T06:28:39.120Z,12.60
2018-12-03T06:31:07.622Z,11.43
2018-12-03T06:33:36.131Z,11.27
2018-12-03T06:36:05.127Z,12.57
2018-12-03T06:38:33.623Z,10.70
2018-12-03T06:41:02.118Z,12.73
2018-12-03T06:43:30.635Z,16.80
2018-12-03T06:45:59.120Z,18.63
2018-12-03T06:48:27.623Z,14.57
2018-12-03T06:50:56.230Z,17.97
2018-12-03T06:53:24.763Z,17.30
2018-12-03T06:55:53.263Z,17.80
2018-12-03T06:58:21.751Z,19.70
2018-12-03T07:00:50.242Z,15.67
2018-12-03T07:03:18.743Z,16.00
2018-12-03T07:05:48.211Z,15.37
2018-12-03T07:08:16.984Z,15.17
2018-12-03T07:10:45.492Z,17.77
2018-12-03T07:13:19.054Z,18.80
2018-12-03T07:15:49.790Z,16.03
2018-12-03T07:18:18.364Z,15.27
2018-12-03T07:20:46.890Z,16.90
2018-12-03T07:23:15.409Z,13.40
2018-12-03T07:25:43.906Z,15.93
2018-12-03T07:28:12.427Z,13.67
2018-12-03T07:30:40.934Z,14.77
2018-12-03T07:33:09.428Z,16.77
2018-12-03T07:35:37.930Z,18.17
2018-12-03T07:38:06.474Z,14.80
2018-12-03T07:40:34.964Z,14.50
2018-12-03T07:43:03.464Z,13.90
2018-12-03T07:45:32.001Z,13.13
2018-12-03T07:48:00.507Z,12.60
2018-12-03T07:50:29.034Z,14.77
2018-12-03T07:52:57.548Z,15.43
2018-12-03T07:55:26.778Z,19.50
2018-12-03T07:58:06.000Z,14.03
2018-12-03T08:00:38.549Z,12.57
2018-12-03T08:03:07.579Z,12.53
2018-12-03T08:05:36.079Z,11.77
2018-12-03T08:08:04.994Z,11.67
2018-12-03T08:10:33.503Z,15.20
2018-12-03T08:13:01.989Z,13.87
2018-12-03T08:15:30.495Z,12.10
2018-12-03T08:18:00.780Z,13.43
2018-12-03T08:20:32.542Z,15.00
2018-12-03T08:23:06.274Z,14.40
2018-12-03T08:25:35.023Z,15.73
2018-12-03T08:28:03.966Z,13.57
2018-12-03T08:30:32.499Z,16.17
2018-12-03T08:33:01.015Z,18.53
2018-12-03T08:35:30.361Z,14.87
2018-12-03T08:38:03.390Z,13.27
2018-12-03T08:40:28.154Z,14.20
2018-12-03T08:42:57.454Z,15.50
2018-12-03T08:45:26.330Z,11.50
2018-12-03T08:47:56.702Z,14.73
2018-12-03T08:50:27.723Z,10.80
2018-12-03T08:52:57.595Z,13.73
2018-12-03T08:55:26.271Z,12.17
2018-12-03T08:57:55.760Z,11.80
2018-12-03T09:00:27.583Z,14.83
2018-12-03T09:03:00.394Z,16.73
2018-12-03T09:05:32.406Z,15.60
2018-12-03T09:08:00.975Z,14.80
2018-12-03T09:10:31.814Z,11.70
2018-12-03T09:13:09.382Z,12.33
2018-12-03T09:15:37.967Z,12.70
2018-12-03T09:18:06.559Z,16.10
2018-12-03T09:20:35.087Z,15.17
2018-12-03T09:23:04.122Z,9.37
2018-12-03T09:25:32.683Z,7.83
2018-12-03T09:28:01.286Z,12.03
2018-12-03T09:30:30.437Z,13.80
2018-12-03T09:32:59.265Z,14.10
2018-12-03T09:35:28.546Z,9.73
2018-12-03T09:37:58.090Z,7.87
2018-12-03T09:40:29.015Z,7.40
2018-12-03T09:42:59.780Z,8.40
2018-12-03T09:45:31.355Z,6.93
2018-12-03T09:48:00.719Z,5.60
2018-12-03T09:50:29.454Z,2.10
2018-12-03T09:52:58.618Z,4.10
2018-12-03T09:55:30.087Z,2.40
2018-12-03T09:58:00.172Z,2.30
2018-12-03T10:00:29.307Z,2.03
2018-12-03T10:02:59.855Z,1.20
2018-12-03T10:05:31.159Z,2.40
2018-12-03T10:07:59.774Z,1.07
2018-12-03T10:10:29.311Z,1.33
2018-12-03T10:13:04.490Z,3.30
2018-12-03T10:15:33.134Z,2.43
2018-12-03T10:18:01.648Z,0.93
2018-12-03T10:20:30.179Z,1.10
2018-12-03T10:23:01.138Z,2.47
2018-12-03T10:25:29.693Z,1.13
2018-12-03T10:28:01.115Z,1.37
2018-12-03T10:30:29.846Z,0.70
2018-12-03T10:32:58.375Z,1.13
2018-12-03T10:35:38.687Z,2.50
2018-12-03T10:38:19.555Z,3.17
2018-12-03T10:40:55.583Z,0.67
2018-12-03T10:43:24.224Z,1.80
2018-12-03T10:45:52.822Z,0.57
2018-12-03T10:48:21.349Z,0.50
2018-12-03T10:50:49.955Z,0.30
2018-12-03T10:53:23.319Z,0.40
2018-12-03T10:55:52.025Z,0.57
2018-12-03T10:58:20.619Z,0.40
2018-12-03T11:00:54.702Z,1.90
2018-12-03T11:03:59.782Z,1.63
2018-12-03T11:06:28.378Z,0.33
2018-12-03T11:08:56.983Z,1.27
2018-12-03T11:11:25.642Z,0.60
2018-12-03T11:13:54.382Z,0.20
2018-12-03T11:16:27.356Z,0.40
2018-12-03T11:18:56.489Z,0.87
2018-12-03T11:21:26.013Z,0.10
2018-12-03T11:23:54.561Z,0.20
2018-12-03T11:26:28.179Z,0.50
2018-12-03T11:28:56.812Z,0.30
2018-12-03T11:31:30.878Z,0.30
2018-12-03T11:33:59.453Z,1.57
2018-12-03T11:36:35.175Z,1.40
2018-12-03T11:39:15.859Z,0.20
2018-12-03T11:41:44.403Z,0.50
2018-12-03T11:44:12.955Z,0.50
2018-12-03T11:46:41.553Z,0.43
2018-12-03T11:49:10.128Z,1.60
2018-12-03T11:51:38.695Z,0.10
2018-12-03T11:54:07.216Z,0.20
2018-12-03T11:56:35.787Z,0.10
2018-12-03T11:59:04.399Z,0.20
2018-12-03T12:01:32.926Z,0.27
2018-12-03T12:04:01.436Z,0.20
2018-12-03T12:06:29.983Z,0.10
2018-12-03T12:08:58.536Z,0.10
2018-12-03T12:11:27.041Z,0.97
2018-12-03T12:13:55.578Z,1.07
2018-12-03T12:16:24.116Z,1.27
2018-12-03T12:18:52.648Z,0.50
2018-12-03T12:21:21.223Z,0.60
2018-12-03T12:23:49.772Z,0.70
2018-12-03T12:26:18.295Z,0.37
2018-12-03T12:28:46.802Z,0.20
2018-12-03T12:31:15.323Z,0.50
2018-12-03T12:33:43.883Z,0.60
2018-12-03T12:36:12.443Z,0.10
2018-12-03T12:38:41.016Z,0.17
2018-12-03T12:41:09.550Z,0.50
2018-12-03T12:43:38.071Z,0.47
2018-12-03T12:46:09.251Z,0.20
2018-12-03T12:48:37.770Z,0.17
2018-12-03T12:51:06.395Z,0.40
2018-12-03T12:53:34.914Z,2.50
2018-12-03T12:56:03.463Z,0.73
2018-12-03T12:58:31.980Z,1.10
2018-12-03T13:01:00.508Z,0.40
2018-12-03T13:03:29.067Z,0.10
2018-12-03T13:05:57.605Z,0.27
2018-12-03T13:08:26.145Z,0.07
2018-12-03T13:10:54.674Z,0.10
2018-12-03T13:13:23.198Z,0.67
2018-12-03T13:15:51.759Z,0.10
2018-12-03T13:18:20.287Z,0.10
2018-12-03T13:20:49.178Z,0.27
2018-12-03T13:23:17.708Z,0.20
2018-12-03T13:25:46.218Z,2.20
2018-12-03T13:28:14.767Z,0.80
2018-12-03T13:30:43.303Z,0.50
2018-12-03T13:33:11.889Z,0.83
2018-12-03T13:35:40.419Z,0.90
2018-12-03T13:38:08.951Z,0.50
2018-12-03T13:40:38.570Z,0.40
2018-12-03T13:43:07.120Z,0.30
2018-12-03T13:45:35.683Z,0.33
2018-12-03T13:48:04.237Z,0.60
2018-12-03T13:50:32.748Z,0.23
2018-12-03T13:53:01.259Z,0.20
2018-12-03T13:55:29.791Z,1.17
2018-12-03T13:57:58.513Z,0.47
2018-12-03T14:00:27.404Z,0.50
2018-12-03T14:03:08.908Z,0.50
2018-12-03T14:06:06.212Z,0.60
2018-12-03T14:10:49.252Z,0.57
2018-12-03T14:14:30.838Z,0.00
2018-12-03T14:17:10.134Z,0.10
2018-12-03T14:19:39.563Z,0.17
2018-12-03T14:22:27.919Z,0.10
2018-12-03T14:24:56.647Z,0.33
2018-12-03T14:27:25.311Z,0.40
2018-12-03T14:29:54.055Z,0.17
2018-12-03T14:32:22.791Z,0.30
2018-12-03T14:34:51.463Z,0.03
2018-12-03T14:37:20.206Z,1.23
2018-12-03T14:39:48.882Z,0.30
2018-12-03T14:42:17.621Z,0.20
2018-12-03T14:44:46.272Z,0.10
2018-12-03T14:47:14.986Z,0.20
2018-12-03T14:49:43.662Z,0.10
2018-12-03T14:52:12.346Z,0.00
2018-12-03T14:54:41.063Z,0.10
2018-12-03T14:57:09.771Z,0.17
2018-12-03T14:59:38.439Z,1.70
2018-12-03T15:02:07.164Z,0.30
2018-12-03T15:04:35.903Z,1.03
2018-12-03T15:07:04.591Z,1.00
2018-12-03T15:09:33.256Z,0.90
2018-12-03T15:12:01.963Z,0.30
2018-12-03T15:14:30.659Z,0.33
2018-12-03T15:16:59.348Z,1.57
2018-12-03T15:19:28.071Z,1.57
2018-12-03T15:21:56.759Z,0.77
2018-12-03T15:24:25.467Z,0.60
2018-12-03T15:26:54.163Z,0.73
2018-12-03T15:29:22.887Z,1.13
2018-12-03T15:31:51.606Z,1.10
2018-12-03T15:34:20.316Z,1.50
2018-12-03T15:36:48.979Z,1.87
2018-12-03T15:39:17.661Z,1.63
2018-12-03T15:41:46.347Z,0.70
2018-12-03T15:44:15.031Z,1.43
2018-12-03T15:46:43.708Z,1.00
2018-12-03T15:49:12.452Z,3.20
2018-12-03T15:51:41.161Z,2.53
2018-12-03T15:54:09.824Z,1.90
2018-12-03T15:56:38.479Z,1.30
2018-12-03T15:59:07.156Z,3.73
2018-12-03T16:01:35.852Z,1.20
2018-12-03T16:04:04.544Z,2.40
2018-12-03T16:06:33.356Z,2.30
2018-12-03T16:09:02.167Z,2.50
2018-12-03T16:11:30.865Z,2.40
2018-12-03T16:13:59.575Z,0.77
2018-12-03T16:16:28.268Z,1.13
2018-12-03T16:18:56.920Z,1.73
2018-12-03T16:21:25.592Z,1.43
2018-12-03T16:23:54.281Z,4.60
2018-12-03T16:26:22.960Z,3.67
2018-12-03T16:28:51.643Z,1.80
2018-12-03T16:31:20.334Z,1.23
2018-12-03T16:33:49.014Z,1.73
2018-12-03T16:36:17.738Z,1.77
2018-12-03T16:38:46.413Z,3.23
2018-12-03T16:41:15.112Z,1.43
2018-12-03T16:43:43.803Z,1.77
2018-12-03T16:46:12.496Z,1.80
2018-12-03T16:48:41.184Z,2.70
2018-12-03T16:51:09.876Z,0.83
2018-12-03T16:53:39.280Z,0.97
2018-12-03T16:56:07.976Z,1.13
2018-12-03T16:58:36.667Z,1.83
2018-12-03T17:01:05.398Z,1.13
2018-12-03T17:03:34.148Z,1.13
2018-12-03T17:06:02.903Z,1.43
2018-12-03T17:08:31.584Z,0.70
2018-12-03T17:11:00.288Z,0.70
2018-12-03T17:13:28.956Z,0.70
2018-12-03T17:15:57.637Z,0.97
2018-12-03T17:18:26.300Z,1.17
2018-12-03T17:21:07.844Z,0.63
2018-12-03T17:24:15.533Z,1.27
2018-12-03T17:26:44.244Z,2.10
2018-12-03T17:29:12.941Z,1.70
2018-12-03T17:31:41.752Z,0.93
2018-12-03T17:34:10.454Z,1.57
2018-12-03T17:36:39.157Z,1.17
2018-12-03T17:39:08.778Z,1.47
2018-12-03T17:41:37.574Z,0.93
2018-12-03T17:44:07.536Z,0.87
2018-12-03T17:46:36.287Z,3.17
2018-12-03T17:49:04.968Z,0.97
2018-12-03T17:51:33.648Z,2.77
2018-12-03T17:54:02.351Z,1.47
2018-12-03T17:56:31.064Z,1.50
2018-12-03T17:58:59.799Z,2.00
2018-12-03T18:01:28.487Z,2.97
2018-12-03T18:03:57.167Z,1.87
2018-12-03T18:06:25.834Z,2.47
2018-12-03T18:08:54.513Z,1.70
2018-12-03T18:11:23.226Z,2.07
2018-12-03T18:13:51.967Z,2.10
2018-12-03T18:16:20.676Z,2.70
2018-12-03T18:18:49.384Z,2.10
2018-12-03T18:21:18.064Z,3.50
2018-12-03T18:23:46.784Z,2.53
2018-12-03T18:26:15.478Z,3.80
2018-12-03T18:28:44.216Z,4.30
2018-12-03T18:31:12.911Z,3.43
2018-12-03T18:33:41.608Z,3.17
2018-12-03T18:36:10.309Z,3.23
2018-12-03T18:38:39.012Z,2.60
2018-12-03T18:41:07.699Z,1.87
2018-12-03T18:43:36.380Z,2.03
2018-12-03T18:46:05.072Z,2.70
2018-12-03T18:48:34.127Z,2.47
2018-12-03T18:51:02.835Z,3.40
2018-12-03T18:53:31.837Z,4.80
2018-12-03T18:56:00.516Z,1.67
2018-12-03T18:58:36.527Z,2.77
2018-12-03T19:01:05.324Z,1.90
2018-12-03T19:03:34.112Z,3.37
2018-12-03T19:06:03.848Z,3.60
2018-12-03T19:08:32.588Z,6.13
2018-12-03T19:11:01.244Z,8.03
2018-12-03T19:13:29.916Z,4.30
2018-12-03T19:15:58.639Z,3.70
2018-12-03T19:18:27.326Z,3.63
2018-12-03T19:20:56.009Z,6.17
2018-12-03T19:23:24.696Z,6.07
2018-12-03T19:25:53.623Z,4.37
2018-12-03T19:28:22.283Z,2.60
2018-12-03T19:30:50.965Z,2.30
2018-12-03T19:33:19.624Z,0.90
2018-12-03T19:35:48.304Z,1.53
2018-12-03T19:38:16.991Z,1.60
2018-12-03T19:40:45.657Z,0.70
2018-12-03T19:43:14.369Z,2.73
2018-12-03T19:45:43.211Z,1.97
2018-12-03T19:48:11.885Z,1.20
2018-12-03T19:50:40.584Z,2.20
2018-12-03T19:53:09.236Z,1.50
2018-12-03T19:55:38.560Z,2.10
2018-12-03T19:58:20.769Z,4.80
2018-12-03T20:00:50.040Z,2.57
2018-12-03T20:03:18.763Z,1.30
2018-12-03T20:05:47.472Z,2.37
2018-12-03T20:08:16.179Z,2.67
2018-12-03T20:10:44.860Z,2.40
2018-12-03T20:13:13.676Z,2.33
2018-12-03T20:15:42.325Z,3.40
2018-12-03T20:18:11.055Z,3.37
2018-12-03T20:20:48.144Z,4.40
2018-12-03T20:23:24.495Z,2.63
2018-12-03T20:26:01.620Z,3.00
2018-12-03T20:28:41.731Z,2.07
2018-12-03T20:31:20.328Z,4.80
2018-12-03T20:38:02.851Z,1.63
2018-12-03T20:40:46.383Z,2.37
2018-12-03T20:43:20.896Z,3.13
2018-12-03T20:46:34.068Z,2.30
2018-12-03T20:49:16.331Z,0.90
2018-12-03T20:51:45.877Z,4.77
2018-12-03T20:54:14.593Z,2.33
2018-12-03T20:56:43.280Z,1.67
2018-12-03T20:59:11.964Z,3.40
2018-12-03T21:02:41.535Z,3.27
2018-12-03T21:05:10.297Z,3.43
2018-12-03T21:07:38.953Z,2.47
2018-12-03T21:10:08.036Z,2.67
2018-12-03T21:12:36.740Z,1.80
2018-12-03T21:15:05.857Z,1.57
2018-12-03T21:17:34.504Z,2.07
2018-12-03T21:20:23.648Z,1.00
2018-12-03T21:22:52.628Z,1.07
2018-12-03T21:25:21.368Z,2.30
2018-12-03T21:27:50.104Z,0.50
2018-12-03T21:30:18.723Z,0.90
2018-12-03T21:32:47.367Z,2.67
2018-12-03T21:35:16.080Z,0.50
2018-12-03T21:37:44.747Z,1.40
2018-12-03T21:40:13.391Z,1.00
2018-12-03T21:42:42.032Z,1.97
2018-12-03T21:45:10.718Z,1.90
2018-12-03T21:47:39.335Z,1.40
2018-12-03T21:50:08.022Z,2.30
2018-12-03T21:52:36.667Z,0.90
2018-12-03T21:55:06.381Z,1.10
2018-12-03T21:57:35.056Z,3.87
2018-12-03T22:00:03.879Z,1.50
2018-12-03T22:02:32.537Z,1.27
2018-12-03T22:05:04.485Z,4.47
2018-12-03T22:07:33.151Z,5.27
2018-12-03T22:10:01.811Z,4.97
2018-12-03T22:12:30.454Z,3.27
2018-12-03T22:14:59.192Z,3.03
2018-12-03T22:17:27.831Z,3.73
2018-12-03T22:19:56.440Z,3.60
2018-12-03T22:22:25.103Z,1.33
2018-12-03T22:24:53.771Z,1.17
2018-12-03T22:27:22.433Z,3.23
2018-12-03T22:29:51.080Z,0.60
2018-12-03T22:32:19.722Z,0.77
2018-12-03T22:34:48.350Z,0.47
2018-12-03T22:37:16.968Z,0.43
2018-12-03T22:39:46.554Z,0.50
2018-12-03T22:42:15.315Z,1.83
2018-12-03T22:44:43.944Z,0.83
2018-12-03T22:47:12.568Z,1.07
2018-12-03T22:49:41.191Z,4.37
2018-12-03T22:52:09.823Z,5.47
2018-12-03T22:54:38.517Z,9.63
2018-12-03T22:57:07.180Z,10.83
2018-12-03T22:59:35.828Z,3.80
2018-12-03T23:02:04.576Z,3.93
2018-12-03T23:04:37.628Z,4.47
2018-12-03T23:07:06.308Z,4.37
2018-12-03T23:09:34.947Z,2.63
2018-12-03T23:12:03.665Z,2.67
2018-12-03T23:14:32.357Z,2.60
2018-12-03T23:17:01.048Z,4.17
2018-12-03T23:19:29.681Z,5.20
2018-12-03T23:21:58.364Z,4.67
2018-12-03T23:24:27.102Z,3.30
2018-12-03T23:26:55.744Z,4.83
2018-12-03T23:29:24.404Z,2.90
2018-12-03T23:31:53.061Z,4.93
2018-12-03T23:34:21.708Z,6.63
2018-12-03T23:36:50.381Z,3.37
2018-12-03T23:39:19.032Z,7.53
2018-12-03T23:41:47.683Z,7.43
2018-12-03T23:44:16.329Z,5.70
2018-12-03T23:46:44.982Z,1.47
2018-12-03T23:49:13.700Z,4.37
2018-12-03T23:51:42.348Z,2.27
2018-12-03T23:54:10.994Z,1.70
2018-12-03T23:56:39.634Z,2.17
2018-12-03T23:59:08.284Z,1.63
